Pine Air, New York
Current Conditions -  °F | °C
As of 1:56 AM on Saturday 25 Oct 2014 (Local Time) from KISP Reporting Station
Clear Clear  
Wind Chill: 51°   Ceiling: Unl
Heat Index: 51°   Visibility: 10mi
Dew Point: 45°   Wind: 10mph
Humidity: 80%   Direction: 330°NNW
Pressure: 29.81"   Gusts: NA
Location:  40.7837°N, 73.252°W
Report Text: KISP 250556Z AUTO 33009KT 10SM CLR 11/07 A2981 RMK AO2 SLP094 T01060072 10128 20089 50003
Loading
Personal Weather Stations






























Interactive Weather Map
Tropical Storm Tracking
New forecast layout! Learn more

10-Day Weather Forecast

Advertisements
Track Severe Weather on mobile